Humboldt Bay — A8OL4 — position and weather

sailwx.info

Track history (hours):
 
Tides and Currents Weather Stations Pressure Air Temp Water Temp Dewpoint Dewpoint Depression Visibility Wind Speed Wind Dir Waves Ship Positions

Humboldt Bay

Last reported at 2016-Nov-24 22:32 UTC. Time now 2016-Dec-09 09:49 UTC.
Position N 09°19' W 079°55'.
Warning: this ship's position is 14 days out of date.

Length 147 m; draft 6.2 m.

Type: Cargo ship. MMSI: 636013649.

Date/timePositionNaut miles runAvg speedWind from/ knotsBaromVisibWave heightAir tempDewpointWater temp
2016-Nov-24 22:32N 09°19' W 079°55'3 3.2
2016-Nov-24 21:28N 09°22' W 079°55'0 0.1
2016-Nov-24 20:31N 09°22' W 079°55'0 0.0
2016-Nov-24 19:25N 09°22' W 079°55'0 0.0
2016-Nov-24 18:28N 09°22' W 079°55'0 0.2
2016-Nov-24 17:34N 09°22' W 079°55'0 0.0
2016-Nov-24 16:34N 09°22' W 079°55'0 0.0
2016-Nov-24 15:33N 09°22' W 079°55'0 0.4
2016-Nov-24 14:33N 09°23' W 079°55'5 5.4
2016-Nov-24 13:32N 09°28' W 079°54'  
2016-Nov-18 14:04N 38°14' W 074°34'41 9.0
2016-Nov-18 09:33N 38°48' W 075°04'2813.9
2016-Nov-18 07:33N 39°13' W 075°18'2412.1
2016-Nov-18 05:33N 39°34' W 075°33'1010.0
2016-Nov-18 04:33N 39°44' W 075°30'20 6.7
2016-Nov-18 01:32N 39°55' W 075°07'0 0.0
2016-Nov-18 00:32N 39°55' W 075°07'0 0.0
2016-Nov-17 23:32N 39°55' W 075°07'0 0.0
2016-Nov-17 22:32N 39°55' W 075°07'0 0.0
2016-Nov-17 21:29N 39°55' W 075°07'0 0.0
2016-Nov-17 19:32N 39°55' W 075°07'0 0.0
2016-Nov-17 18:32N 39°55' W 075°07'0 0.0
2016-Nov-17 14:32N 39°55' W 075°07'0 0.0
2016-Nov-17 13:23N 39°55' W 075°07'0 0.0
2016-Nov-17 12:23N 39°55' W 075°07'0 0.0
2016-Nov-17 11:33N 39°55' W 075°07'0 0.0
2016-Nov-17 08:32N 39°55' W 075°07'0 0.0
2016-Nov-17 06:32N 39°55' W 075°07'0 0.0
2016-Nov-17 02:32N 39°55' W 075°07'0 0.0
2016-Nov-16 23:32N 39°55' W 075°07'0 0.0
2016-Nov-16 22:32N 39°55' W 075°07'0 0.0
2016-Nov-16 20:32N 39°55' W 075°07'0 0.0
2016-Nov-16 19:32N 39°55' W 075°07'0 0.0
2016-Nov-16 18:32N 39°55' W 075°07'0 0.0
2016-Nov-16 17:32N 39°55' W 075°07'0 0.0
2016-Nov-16 16:32N 39°55' W 075°07'0 0.0
2016-Nov-16 12:20N 39°55' W 075°07'0 0.0
2016-Nov-16 09:32N 39°55' W 075°07'0 0.0
2016-Nov-16 08:32N 39°55' W 075°07'0 0.0
2016-Nov-16 07:32N 39°55' W 075°07'0 0.0
2016-Nov-16 06:32N 39°55' W 075°07'0 0.0
2016-Nov-16 04:32N 39°55' W 075°07'0 0.0
2016-Nov-16 03:32N 39°55' W 075°07'0 0.0
2016-Nov-16 02:16N 39°55' W 075°07'0 0.0
2016-Nov-16 01:32N 39°55' W 075°07'0 0.0
2016-Nov-15 21:32N 39°55' W 075°07'0 0.0
2016-Nov-15 19:32N 39°55' W 075°07'0 0.0
2016-Nov-15 18:32N 39°55' W 075°07'0 0.0
2016-Nov-15 13:32N 39°55' W 075°07'0 0.0
2016-Nov-15 12:32N 39°55' W 075°07'0 0.0
2016-Nov-15 11:32N 39°55' W 075°07'0 0.0
2016-Nov-15 10:32N 39°55' W 075°07'0 0.0
2016-Nov-15 07:32N 39°55' W 075°07'0 0.0
2016-Nov-15 06:32N 39°55' W 075°07'0 0.0
2016-Nov-15 05:53N 39°55' W 075°07'0 0.0
2016-Nov-15 03:32N 39°55' W 075°07'0 0.4
2016-Nov-15 02:33N 39°54' W 075°08'2010.0
2016-Nov-15 00:34N 39°44' W 075°30'1011.5
2016-Nov-14 23:43N 39°34' W 075°33'  
Track history (hours):
 
Tides and Currents Weather Stations Pressure Air Temp Water Temp Dewpoint Dewpoint Depression Visibility Wind Speed Wind Dir Waves Ship Positions

Humboldt Bay

Last reported at 2016-Nov-24 22:32 UTC. Time now 2016-Dec-09 09:49 UTC.
Position N 09°19' W 079°55'.
Warning: this ship's position is 14 days out of date.

Length 147 m; draft 6.2 m.

Type: Cargo ship. MMSI: 636013649.

Date/timePositionNaut miles runAvg speedWind from/ knotsBaromVisibWave heightAir tempDewpointWater temp
2016-Nov-24 22:32N 09°19' W 079°55'3 3.2
2016-Nov-24 21:28N 09°22' W 079°55'0 0.1
2016-Nov-24 20:31N 09°22' W 079°55'0 0.0
2016-Nov-24 19:25N 09°22' W 079°55'0 0.0
2016-Nov-24 18:28N 09°22' W 079°55'0 0.2
2016-Nov-24 17:34N 09°22' W 079°55'0 0.0
2016-Nov-24 16:34N 09°22' W 079°55'0 0.0
2016-Nov-24 15:33N 09°22' W 079°55'0 0.4
2016-Nov-24 14:33N 09°23' W 079°55'5 5.4
2016-Nov-24 13:32N 09°28' W 079°54'  
2016-Nov-18 14:04N 38°14' W 074°34'41 9.0
2016-Nov-18 09:33N 38°48' W 075°04'2813.9
2016-Nov-18 07:33N 39°13' W 075°18'2412.1
2016-Nov-18 05:33N 39°34' W 075°33'1010.0
2016-Nov-18 04:33N 39°44' W 075°30'20 6.7
2016-Nov-18 01:32N 39°55' W 075°07'0 0.0
2016-Nov-18 00:32N 39°55' W 075°07'0 0.0
2016-Nov-17 23:32N 39°55' W 075°07'0 0.0
2016-Nov-17 22:32N 39°55' W 075°07'0 0.0
2016-Nov-17 21:29N 39°55' W 075°07'0 0.0
2016-Nov-17 19:32N 39°55' W 075°07'0 0.0
2016-Nov-17 18:32N 39°55' W 075°07'0 0.0
2016-Nov-17 14:32N 39°55' W 075°07'0 0.0
2016-Nov-17 13:23N 39°55' W 075°07'0 0.0
2016-Nov-17 12:23N 39°55' W 075°07'0 0.0
2016-Nov-17 11:33N 39°55' W 075°07'0 0.0
2016-Nov-17 08:32N 39°55' W 075°07'0 0.0
2016-Nov-17 06:32N 39°55' W 075°07'0 0.0
2016-Nov-17 02:32N 39°55' W 075°07'0 0.0
2016-Nov-16 23:32N 39°55' W 075°07'0 0.0
2016-Nov-16 22:32N 39°55' W 075°07'0 0.0
2016-Nov-16 20:32N 39°55' W 075°07'0 0.0
2016-Nov-16 19:32N 39°55' W 075°07'0 0.0
2016-Nov-16 18:32N 39°55' W 075°07'0 0.0
2016-Nov-16 17:32N 39°55' W 075°07'0 0.0
2016-Nov-16 16:32N 39°55' W 075°07'0 0.0
2016-Nov-16 12:20N 39°55' W 075°07'0 0.0
2016-Nov-16 09:32N 39°55' W 075°07'0 0.0
2016-Nov-16 08:32N 39°55' W 075°07'0 0.0
2016-Nov-16 07:32N 39°55' W 075°07'0 0.0
2016-Nov-16 06:32N 39°55' W 075°07'0 0.0
2016-Nov-16 04:32N 39°55' W 075°07'0 0.0
2016-Nov-16 03:32N 39°55' W 075°07'0 0.0
2016-Nov-16 02:16N 39°55' W 075°07'0 0.0
2016-Nov-16 01:32N 39°55' W 075°07'0 0.0
2016-Nov-15 21:32N 39°55' W 075°07'0 0.0
2016-Nov-15 19:32N 39°55' W 075°07'0 0.0
2016-Nov-15 18:32N 39°55' W 075°07'0 0.0
2016-Nov-15 13:32N 39°55' W 075°07'0 0.0
2016-Nov-15 12:32N 39°55' W 075°07'0 0.0
2016-Nov-15 11:32N 39°55' W 075°07'0 0.0
2016-Nov-15 10:32N 39°55' W 075°07'0 0.0
2016-Nov-15 07:32N 39°55' W 075°07'0 0.0
2016-Nov-15 06:32N 39°55' W 075°07'0 0.0
2016-Nov-15 05:53N 39°55' W 075°07'0 0.0
2016-Nov-15 03:32N 39°55' W 075°07'0 0.4
2016-Nov-15 02:33N 39°54' W 075°08'2010.0
2016-Nov-15 00:34N 39°44' W 075°30'1011.5
2016-Nov-14 23:43N 39°34' W 075°33'  

Dump ship's entire track history